Time;durP1;ratioP1;P1;durP2;ratioP2;P2;SDS_P1;SDS_P2;PMS_P1;PMS_P2;Temp;Humidity;BMP_temperature;BMP_pressure;BME280_temperature;BME280_humidity;BME280_pressure;Samples;Min_cycle;Max_cycle;Signal;HPM_P1;HPM_P2
2023/01/02 00:01:19;;;;;;;3.80;2.43;;;;;;;16.67;65.51;96825.16;10386176;28;20539;-27
2023/01/02 00:06:19;;;;;;;3.57;2.03;;;;;;;16.70;65.27;96819.31;10374461;28;20092;-25
2023/01/02 00:11:20;;;;;;;5.80;2.83;;;;;;;16.70;65.28;96811.72;10385997;28;20037;-25
2023/01/02 00:16:20;;;;;;;5.30;2.33;;;;;;;16.71;65.48;96810.88;10374974;28;20053;-26
2023/01/02 00:21:21;;;;;;;3.72;1.73;;;;;;;16.70;65.26;96808.38;10372468;28;20073;-25
2023/01/02 00:26:21;;;;;;;4.50;2.13;;;;;;;16.71;65.50;96810.88;10383289;28;20042;-26
2023/01/02 00:31:21;;;;;;;4.27;2.57;;;;;;;16.68;65.30;96805.81;10377790;28;20053;-26
2023/01/02 00:36:22;;;;;;;4.95;2.13;;;;;;;16.71;65.46;96810.88;10378810;28;20044;-25
2023/01/02 00:41:22;;;;;;;4.22;2.03;;;;;;;16.70;65.28;96808.38;10363064;28;20069;-26
2023/01/02 00:46:23;;;;;;;4.22;2.15;;;;;;;16.70;65.38;96791.50;10382340;28;20038;-24
2023/01/02 00:51:23;;;;;;;5.57;2.13;;;;;;;16.70;65.12;96783.91;10376745;28;20064;-25
2023/01/02 00:56:23;;;;;;;4.60;2.00;;;;;;;16.70;65.24;96781.38;10377188;28;20061;-25
2023/01/02 01:01:24;;;;;;;5.90;2.70;;;;;;;16.70;64.98;96783.91;10395446;28;20318;-25
2023/01/02 01:06:24;;;;;;;4.10;2.33;;;;;;;16.70;65.00;96778.84;10377106;28;20509;-27
2023/01/02 01:11:25;;;;;;;5.05;2.28;;;;;;;16.69;64.89;96784.75;10389586;28;20044;-25
2023/01/02 01:16:26;;;;;;;4.43;2.40;;;;;;;16.64;65.17;96778.84;10382422;28;20535;-26
2023/01/02 01:21:26;;;;;;;3.15;2.10;;;;;;;16.68;65.29;96780.53;10376602;28;20299;-25
2023/01/02 01:26:26;;;;;;;2.30;1.57;;;;;;;16.70;65.55;96783.91;10379547;28;20082;-25
2023/01/02 01:31:29;;;;;;;2.30;1.67;;;;;;;16.70;65.53;96783.09;10391696;28;20304;-26
2023/01/02 01:36:29;;;;;;;3.92;1.83;;;;;;;16.71;65.14;96770.44;10386953;28;20283;-25
2023/01/02 01:41:30;;;;;;;2.60;1.90;;;;;;;16.70;65.29;96767.91;10366698;28;20488;-25
2023/01/02 01:46:42;;;;;;;4.43;1.70;;;;;;;16.69;64.80;96774.63;10382185;28;20515;-27
2023/01/02 01:51:50;;;;;;;4.15;2.25;;;;;;;16.70;64.58;96778.84;10381761;28;20048;-25
2023/01/02 01:57:02;;;;;;;3.08;1.77;;;;;;;16.68;64.72;96780.53;10363892;28;20582;-24
2023/01/02 02:02:02;;;;;;;4.57;2.88;;;;;;;16.69;64.76;96778.88;10374801;28;20042;-24
2023/01/02 02:07:03;;;;;;;2.73;1.60;;;;;;;16.69;64.82;96772.09;10372467;28;20100;-25
2023/01/02 02:12:05;;;;;;;4.68;1.52;;;;;;;16.67;64.89;96769.56;10392493;28;20121;-25
2023/01/02 02:17:33;;;;;;;2.90;1.88;;;;;;;16.68;64.50;96770.41;10378596;28;20037;-25
2023/01/02 02:22:54;;;;;;;5.40;1.70;;;;;;;16.67;64.93;96769.56;10364332;28;20037;-25
2023/01/02 02:28:07;;;;;;;2.35;1.60;;;;;;;16.69;64.79;96761.16;10374114;28;20512;-26
2023/01/02 02:33:44;;;;;;;3.55;1.55;;;;;;;16.67;64.78;96761.97;10358175;28;20035;-26
2023/01/02 02:38:59;;;;;;;3.37;1.60;;;;;;;16.69;65.29;96751.06;10381467;28;20481;-27
2023/01/02 02:44:10;;;;;;;2.38;1.65;;;;;;;16.70;65.11;96748.53;10382347;28;20041;-25
2023/01/02 02:49:22;;;;;;;2.97;1.70;;;;;;;16.71;64.66;96747.69;10367443;28;20441;-25
2023/01/02 02:54:33;;;;;;;2.83;1.77;;;;;;;16.69;64.62;96746.84;10384725;28;20464;-26
2023/01/02 02:59:35;;;;;;;2.33;1.77;;;;;;;16.70;64.35;96747.69;10373167;28;20116;-26
2023/01/02 03:04:37;;;;;;;2.83;1.83;;;;;;;16.68;64.36;96750.19;10387586;28;20038;-25
2023/01/02 03:09:53;;;;;;;3.63;1.65;;;;;;;16.69;64.00;96751.06;10370920;28;20033;-28
2023/01/02 03:15:05;;;;;;;3.13;1.80;;;;;;;16.67;64.21;96739.22;10392885;28;20060;-26
2023/01/02 03:20:11;;;;;;;2.33;1.20;;;;;;;16.66;64.29;96740.91;10367924;28;20073;-25
2023/01/02 03:25:14;;;;;;;3.60;1.50;;;;;;;16.68;64.53;96735.03;10355717;28;20037;-25
2023/01/02 03:30:20;;;;;;;2.33;1.63;;;;;;;16.66;64.63;96729.13;10376996;28;20092;-24
2023/01/02 03:35:28;;;;;;;2.40;1.60;;;;;;;16.67;64.62;96725.75;10391530;28;20050;-26
2023/01/02 03:40:34;;;;;;;3.35;1.98;;;;;;;16.67;64.90;96722.38;10378210;28;20034;-27
2023/01/02 03:45:47;;;;;;;3.30;1.70;;;;;;;16.66;64.47;96736.72;10378794;28;20037;-25
2023/01/02 03:50:51;;;;;;;2.30;1.60;;;;;;;16.67;65.08;96733.34;10373708;28;20183;-25
2023/01/02 03:56:09;;;;;;;2.45;1.60;;;;;;;16.68;65.00;96722.41;10373340;28;20030;-25
2023/01/02 04:01:37;;;;;;;1.95;1.27;;;;;;;16.72;64.16;96729.19;10387450;28;20133;-26
2023/01/02 04:06:46;;;;;;;2.17;1.40;;;;;;;16.71;64.34;96730.00;10369288;28;20104;-24
2023/01/02 04:11:53;;;;;;;2.85;1.77;;;;;;;16.67;64.27;96734.16;10385826;28;20037;-25
2023/01/02 04:16:55;;;;;;;2.80;1.30;;;;;;;16.67;64.25;96751.03;10389300;28;20140;-27
2023/01/02 04:22:00;;;;;;;2.28;1.30;;;;;;;16.66;64.02;96744.28;10375968;28;20027;-25
2023/01/02 04:27:12;;;;;;;2.10;1.10;;;;;;;16.66;64.66;96741.75;10385677;28;20027;-25
2023/01/02 04:32:21;;;;;;;2.20;1.50;;;;;;;16.65;63.64;96742.59;10368437;28;20506;-25
2023/01/02 04:37:29;;;;;;;3.05;1.20;;;;;;;16.69;64.36;96751.06;10385013;28;20467;-24
2023/01/02 04:42:30;;;;;;;1.95;1.40;;;;;;;16.67;64.43;96756.09;10369915;28;20044;-24
2023/01/02 04:47:30;;;;;;;1.85;1.23;;;;;;;16.67;64.50;96753.56;10378913;28;20396;-24
2023/01/02 04:52:30;;;;;;;2.23;1.30;;;;;;;16.66;64.35;96756.06;10380963;28;20029;-26
2023/01/02 04:57:31;;;;;;;2.97;1.40;;;;;;;16.70;63.96;96766.22;10371205;28;21480;-25
2023/01/02 05:02:35;;;;;;;2.07;1.40;;;;;;;16.73;64.20;96769.63;10386788;28;20574;-25
2023/01/02 05:07:37;;;;;;;2.47;1.33;;;;;;;16.76;64.00;96776.38;10372438;28;20440;-25
2023/01/02 05:12:38;;;;;;;1.08;0.95;;;;;;;16.78;63.83;96774.72;10373835;28;20033;-26
2023/01/02 05:17:40;;;;;;;2.05;1.17;;;;;;;16.77;63.04;96781.47;10369954;28;20120;-27
2023/01/02 05:28:02;;;;;;;1.85;1.05;;;;;;;16.77;63.53;96775.53;10377873;28;20025;-26
2023/01/02 05:33:02;;;;;;;2.60;1.48;;;;;;;16.76;63.37;96783.97;10375392;28;20045;-24
2023/01/02 05:38:03;;;;;;;1.80;1.10;;;;;;;16.78;62.93;96787.34;10380179;28;20038;-24
2023/01/02 05:43:03;;;;;;;2.43;1.33;;;;;;;16.80;62.52;96781.47;10370826;28;20038;-25
2023/01/02 05:48:04;;;;;;;7.70;2.63;;;;;;;16.78;63.31;96795.78;10379204;28;20034;-25
2023/01/02 05:53:04;;;;;;;7.15;2.20;;;;;;;16.80;63.21;96795.78;10377051;28;20044;-25
2023/01/02 05:58:04;;;;;;;10.80;2.03;;;;;;;16.82;63.11;96804.25;10377684;28;20029;-25
2023/01/02 06:03:05;;;;;;;3.77;1.90;;;;;;;16.76;63.13;96791.56;10376343;28;20029;-26
2023/01/02 06:08:05;;;;;;;7.93;2.17;;;;;;;16.81;63.48;96807.63;10387778;28;20292;-24
2023/01/02 06:13:05;;;;;;;6.17;2.00;;;;;;;16.80;63.63;96816.00;10381657;28;20037;-27
2023/01/02 06:18:06;;;;;;;4.10;2.03;;;;;;;16.78;64.30;96812.63;10370882;28;20041;-26
2023/01/02 06:23:06;;;;;;;5.40;2.03;;;;;;;16.77;63.99;96821.06;10373127;28;20064;-25
2023/01/02 06:28:08;;;;;;;2.95;1.88;;;;;;;16.78;63.68;96832.84;10381078;28;20037;-25
2023/01/02 06:33:08;;;;;;;3.80;2.00;;;;;;;16.78;63.79;96832.84;10382197;28;20054;-26
2023/01/02 06:38:08;;;;;;;5.30;1.90;;;;;;;16.77;63.72;96831.16;10379445;28;20044;-26
2023/01/02 06:43:09;;;;;;;4.27;1.57;;;;;;;16.77;63.65;96830.34;10383477;28;20090;-27
2023/01/02 06:48:09;;;;;;;4.63;1.90;;;;;;;16.77;64.03;96846.34;10389453;28;20038;-27
2023/01/02 06:53:11;;;;;;;4.33;1.20;;;;;;;16.76;63.57;96847.16;10388436;28;20418;-27
2023/01/02 06:58:11;;;;;;;3.97;1.50;;;;;;;16.74;63.69;96848.84;10386714;28;20033;-27
2023/01/02 07:03:12;;;;;;;2.27;1.10;;;;;;;16.73;63.99;96850.50;10392842;28;20043;-25
2023/01/02 07:08:12;;;;;;;2.10;1.15;;;;;;;16.76;63.49;96854.75;10384547;28;20045;-26
2023/01/02 07:13:13;;;;;;;2.10;1.30;;;;;;;16.74;63.69;96869.91;10385080;28;20034;-26
2023/01/02 07:18:13;;;;;;;4.37;1.40;;;;;;;16.73;64.03;96875.78;10391796;28;20037;-26
2023/01/02 07:23:13;;;;;;;4.10;1.30;;;;;;;16.73;64.02;96874.09;10378779;28;20037;-26
2023/01/02 07:28:14;;;;;;;2.70;1.27;;;;;;;16.72;64.04;96880.00;10390516;28;20421;-26
2023/01/02 07:33:14;;;;;;;3.73;1.20;;;;;;;16.72;64.21;96885.91;10385618;28;20066;-25
2023/01/02 07:38:15;;;;;;;4.28;1.35;;;;;;;16.72;63.97;96893.50;10387425;28;20030;-24
2023/01/02 07:43:15;;;;;;;2.17;1.30;;;;;;;16.72;64.17;96902.75;10385042;28;20045;-25
2023/01/02 07:48:16;;;;;;;2.60;1.40;;;;;;;16.70;63.40;96914.53;10389405;28;20038;-24
2023/01/02 07:53:17;;;;;;;1.48;1.00;;;;;;;16.70;63.61;96912.00;10386585;28;20328;-25
2023/01/02 07:58:17;;;;;;;2.50;1.33;;;;;;;16.70;63.86;96920.41;10383228;28;20045;-24
2023/01/02 08:03:17;;;;;;;1.80;1.10;;;;;;;16.70;62.85;96924.66;10385419;28;20052;-25
2023/01/02 08:08:18;;;;;;;2.77;1.20;;;;;;;16.69;63.69;96912.84;10381951;28;20325;-26
2023/01/02 08:13:18;;;;;;;1.97;1.33;;;;;;;16.68;63.43;96922.09;10382177;28;20045;-26
2023/01/02 08:18:18;;;;;;;1.63;0.90;;;;;;;16.69;63.32;96933.91;10387062;28;20029;-26
2023/01/02 08:23:19;;;;;;;1.23;0.77;;;;;;;16.69;63.54;96964.22;10382669;28;20037;-26
2023/01/02 08:28:19;;;;;;;1.37;1.10;;;;;;;16.68;63.28;96965.06;10382407;28;20293;-24
2023/01/02 08:33:21;;;;;;;2.30;1.10;;;;;;;16.67;63.09;96961.69;10387858;28;20065;-24
2023/01/02 08:38:21;;;;;;;4.03;1.30;;;;;;;16.60;60.54;96935.50;10358854;28;20117;-26
2023/01/02 08:43:21;;;;;;;3.37;1.40;;;;;;;16.58;60.18;96965.81;10356996;28;20042;-28
2023/01/02 08:48:22;;;;;;;2.50;1.43;;;;;;;16.63;62.25;96981.84;10363660;28;20034;-24
2023/01/02 08:53:22;;;;;;;3.95;1.60;;;;;;;16.57;58.50;96993.56;10352601;28;20054;-25
2023/01/02 08:58:23;;;;;;;1.47;0.97;;;;;;;16.54;57.63;97003.66;10354341;28;20044;-24
2023/01/02 09:03:23;;;;;;;3.27;1.03;;;;;;;16.54;57.28;96984.28;10354195;28;20038;-26
2023/01/02 09:08:23;;;;;;;1.83;1.20;;;;;;;16.60;56.60;97014.69;10366736;28;20040;-24
2023/01/02 09:13:24;;;;;;;3.90;1.03;;;;;;;16.59;56.20;97002.03;10364880;28;20049;-24
2023/01/02 09:18:24;;;;;;;1.50;1.00;;;;;;;16.56;56.02;97012.97;10378381;28;20099;-25
2023/01/02 09:23:25;;;;;;;1.10;1.00;;;;;;;16.48;55.84;97018.75;10366988;28;20033;-24
2023/01/02 09:28:27;;;;;;;1.23;0.95;;;;;;;16.54;55.77;97027.25;10374444;28;20378;-26
2023/01/02 09:33:27;;;;;;;2.42;1.40;;;;;;;16.46;54.79;97033.88;10377508;28;20038;-24
2023/01/02 09:38:28;;;;;;;5.40;1.40;;;;;;;16.49;54.75;97054.16;10387625;28;20030;-24
2023/01/02 09:43:41;;;;;;;8.88;3.15;;;;;;;16.52;54.91;97056.72;10371201;28;20532;-25
2023/01/02 09:48:42;;;;;;;1.58;1.15;;;;;;;16.56;55.38;97055.94;10360250;28;20061;-24
2023/01/02 09:53:42;;;;;;;5.88;2.38;;;;;;;16.61;54.88;97086.31;10369702;28;20311;-24
2023/01/02 09:58:44;;;;;;;4.25;2.08;;;;;;;16.63;55.18;97075.38;10365886;28;20041;-27
2023/01/02 10:03:54;;;;;;;11.45;3.78;;;;;;;16.62;55.62;97083.78;10365727;28;20524;-25
2023/01/02 10:09:11;;;;;;;19.15;3.75;;;;;;;16.68;56.49;97083.88;10363650;28;20437;-25
2023/01/02 10:14:11;;;;;;;9.48;2.90;;;;;;;16.65;55.37;97077.94;10367296;28;20053;-28
2023/01/02 10:19:19;;;;;;;11.27;3.57;;;;;;;16.62;56.62;97082.97;10388163;28;20033;-27
2023/01/02 10:24:33;;;;;;;7.57;3.28;;;;;;;16.61;55.98;97061.88;10373986;28;20088;-24
2023/01/02 10:29:40;;;;;;;10.55;3.58;;;;;;;16.61;55.74;97061.03;10378281;28;20029;-25
2023/01/02 10:34:55;;;;;;;8.55;3.00;;;;;;;16.59;56.52;97076.19;10374088;28;20579;-25
2023/01/02 10:39:55;;;;;;;8.45;3.05;;;;;;;16.55;55.62;97061.78;10382822;28;20037;-27
2023/01/02 10:44:55;;;;;;;10.07;3.47;;;;;;;16.59;55.89;97047.50;10385534;28;20412;-26
2023/01/02 10:49:57;;;;;;;18.43;6.07;;;;;;;16.60;59.97;97057.66;10380881;28;20112;-25
2023/01/02 10:54:58;;;;;;;14.27;5.68;;;;;;;16.62;60.80;97061.03;10374762;28;20038;-24
2023/01/02 11:00:00;;;;;;;7.03;3.08;;;;;;;16.63;56.50;97047.56;10372740;28;20033;-24
2023/01/02 11:05:03;;;;;;;9.23;3.17;;;;;;;16.57;56.62;97039.94;10380359;28;20042;-27
2023/01/02 11:10:20;;;;;;;13.50;5.35;;;;;;;16.64;59.62;97056.88;10371284;28;20405;-27
2023/01/02 11:15:29;;;;;;;15.95;5.30;;;;;;;16.66;59.91;97035.00;10381926;28;20050;-26
2023/01/02 11:20:34;;;;;;;11.75;5.68;;;;;;;16.68;61.04;97058.59;10390522;28;20092;-26
2023/01/02 11:25:40;;;;;;;9.05;4.05;;;;;;;16.70;56.30;97043.47;10375907;28;20026;-26
2023/01/02 11:30:53;;;;;;;9.13;4.22;;;;;;;16.71;57.48;97048.50;10374316;28;20029;-24
2023/01/02 11:36:03;;;;;;;6.68;4.07;;;;;;;16.67;55.24;97036.69;10392271;28;20041;-27
2023/01/02 11:41:03;;;;;;;8.82;4.50;;;;;;;16.73;57.09;97041.81;10374296;28;20041;-25
2023/01/02 11:46:05;;;;;;;8.80;4.45;;;;;;;16.66;55.78;97056.88;10384373;28;20040;-26
2023/01/02 11:51:15;;;;;;;23.63;5.70;;;;;;;16.69;56.33;97050.19;10378086;28;20053;-26
2023/01/02 11:56:26;;;;;;;13.02;4.53;;;;;;;16.61;55.10;97040.81;10356236;28;20433;-25
2023/01/02 12:01:48;;;;;;;12.38;3.95;;;;;;;16.65;55.24;97062.75;10388196;28;20117;-26
2023/01/02 12:07:05;;;;;;;7.10;3.65;;;;;;;16.63;55.06;97065.25;10396509;28;20029;-26
2023/01/02 12:12:20;;;;;;;;;;;;;;;16.68;55.41;97066.19;10382579;28;20034;-25
2023/01/02 12:17:36;;;;;;;7.35;3.15;;;;;;;16.68;54.86;97058.59;10381799;28;20285;-24
2023/01/02 12:23:06;;;;;;;6.43;3.42;;;;;;;16.69;55.13;97067.88;10371256;28;20033;-25
2023/01/02 12:28:32;;;;;;;7.57;3.45;;;;;;;16.74;54.95;97061.22;10382178;28;20032;-25
2023/01/02 12:33:38;;;;;;;8.13;3.83;;;;;;;16.74;58.75;97074.69;10382906;28;20505;-26
2023/01/02 12:39:13;;;;;;;6.43;3.43;;;;;;;16.71;55.69;97083.91;10386942;28;20059;-26
2023/01/02 12:44:25;;;;;;;11.40;4.30;;;;;;;16.70;56.50;97091.50;10371714;28;20041;-26
2023/01/02 12:49:45;;;;;;;8.65;3.20;;;;;;;16.66;55.67;97088.06;10371922;28;20038;-26
2023/01/02 12:55:02;;;;;;;7.53;3.70;;;;;;;16.70;55.80;97097.38;10350239;28;20045;-25
2023/01/02 13:00:25;;;;;;;9.73;4.18;;;;;;;16.71;55.50;97088.13;10371072;28;20062;-25
2023/01/02 13:05:33;;;;;;;7.80;3.65;;;;;;;16.70;55.76;97091.50;10355448;28;20041;-26
2023/01/02 13:10:34;;;;;;;8.48;3.58;;;;;;;16.71;55.32;97088.97;10372505;28;20069;-26
2023/01/02 13:15:38;;;;;;;8.48;3.95;;;;;;;16.70;55.63;97107.50;10387512;28;20064;-26
2023/01/02 13:20:53;;;;;;;5.30;2.63;;;;;;;16.69;55.47;97115.91;10381897;28;20116;-25
2023/01/02 13:26:13;;;;;;;8.30;3.80;;;;;;;16.66;55.45;97120.94;10380486;28;20033;-24
2023/01/02 13:31:15;;;;;;;7.50;4.55;;;;;;;16.63;55.31;97115.81;10377071;28;20056;-26
2023/01/02 13:36:27;;;;;;;6.72;2.50;;;;;;;16.63;55.40;97120.88;10358346;28;20033;-25
2023/01/02 13:42:56;;;;;;;9.52;4.30;;;;;;;16.71;55.98;97129.41;10382513;28;20046;-25
2023/01/02 13:46:51;;;;;;;7.90;3.38;;;;;;;16.77;57.02;97143.84;10384592;28;20432;-24
2023/01/02 13:51:58;;;;;;;7.55;3.13;;;;;;;16.70;55.40;97165.63;10371238;28;20084;-25
2023/01/02 13:57:34;;;;;;;7.22;3.60;;;;;;;16.61;55.04;97155.41;10377675;28;20617;-25
2023/01/02 14:02:34;;;;;;;6.03;3.20;;;;;;;16.55;54.94;97182.28;10334975;28;20053;-26
2023/01/02 14:07:43;;;;;;;7.23;2.83;;;;;;;16.49;54.85;97192.28;10376659;28;20447;-25
2023/01/02 14:12:51;;;;;;;7.45;3.33;;;;;;;16.49;54.89;97193.16;10379856;28;20112;-24
2023/01/02 14:18:02;;;;;;;6.95;3.50;;;;;;;16.48;55.13;97199.03;10383734;28;20038;-25
2023/01/02 14:23:07;;;;;;;4.53;2.45;;;;;;;16.53;55.00;97225.22;10385698;28;20112;-26
2023/01/02 14:28:20;;;;;;;4.35;2.67;;;;;;;16.52;54.94;97238.69;10371081;28;20038;-26
2023/01/02 14:33:33;;;;;;;6.75;2.67;;;;;;;16.62;55.23;97260.75;10372104;28;20042;-26
2023/01/02 14:38:53;;;;;;;5.47;3.22;;;;;;;16.66;56.27;97262.50;10378329;28;20093;-25
2023/01/02 14:43:54;;;;;;;7.03;2.97;;;;;;;16.66;56.58;97267.56;10373910;28;20037;-25
2023/01/02 14:48:58;;;;;;;6.55;3.30;;;;;;;16.67;57.00;97275.97;10387003;28;20038;-26
2023/01/02 14:54:07;;;;;;;7.90;3.85;;;;;;;16.67;57.03;97277.69;10380544;28;20554;-25
2023/01/02 14:59:17;;;;;;;10.27;4.70;;;;;;;16.69;62.41;97292.88;10371946;28;20034;-25
2023/01/02 15:04:26;;;;;;;10.02;5.05;;;;;;;16.71;64.05;97286.16;10366490;28;20081;-27
2023/01/02 15:09:41;;;;;;;8.63;4.97;;;;;;;16.65;61.13;97291.16;10379231;28;20030;-25
2023/01/02 15:14:42;;;;;;;7.68;4.05;;;;;;;16.63;59.95;97280.13;10381069;28;20066;-27
2023/01/02 15:19:43;;;;;;;6.18;3.53;;;;;;;16.64;59.05;97289.44;10392459;28;20031;-26
2023/01/02 15:24:49;;;;;;;4.78;3.40;;;;;;;16.64;59.64;97294.50;10385545;28;20110;-25
2023/01/02 15:29:53;;;;;;;7.57;4.07;;;;;;;16.64;59.33;97294.50;10373026;28;20036;-26
2023/01/02 15:35:10;;;;;;;5.53;3.42;;;;;;;16.63;59.99;97302.06;10384959;28;20478;-25
2023/01/02 15:40:41;;;;;;;;;;;;;;;16.62;59.02;97313.00;10389049;28;20037;-25
2023/01/02 15:45:46;;;;;;;9.40;3.88;;;;;;;16.59;59.67;97311.25;10374002;28;19913;-25
2023/01/02 15:50:52;;;;;;;9.52;3.85;;;;;;;16.61;59.32;97321.41;10377334;28;20048;-25
2023/01/02 15:55:52;;;;;;;6.80;3.33;;;;;;;16.60;60.01;97323.06;10360317;28;20046;-24
2023/01/02 16:01:16;;;;;;;3.80;3.20;;;;;;;16.58;60.09;97319.66;10388926;28;20034;-24
2023/01/02 16:06:27;;;;;;;5.65;3.63;;;;;;;16.57;60.72;97323.03;10383797;28;20083;-26
2023/01/02 16:11:28;;;;;;;5.78;3.20;;;;;;;16.59;59.58;97335.66;10379818;28;20053;-25
2023/01/02 16:16:44;;;;;;;5.95;3.88;;;;;;;16.66;65.32;97335.81;10389311;28;20040;-26
2023/01/02 16:21:45;;;;;;;8.93;4.63;;;;;;;16.62;65.40;97341.63;10377408;28;20044;-24
2023/01/02 16:26:48;;;;;;;5.10;3.70;;;;;;;16.60;62.37;97350.88;10371217;28;20446;-26
2023/01/02 16:31:54;;;;;;;4.95;3.60;;;;;;;16.60;60.97;97362.69;10388356;28;20493;-24
2023/01/02 16:37:12;;;;;;;4.55;3.13;;;;;;;16.58;61.60;97365.16;10390967;28;20060;-25
2023/01/02 16:47:41;;;;;;;4.53;3.17;;;;;;;16.58;61.51;97369.38;10380601;28;20029;-24
2023/01/02 16:52:42;;;;;;;6.82;3.80;;;;;;;16.57;62.18;97378.63;10386635;28;20069;-24
2023/01/02 16:57:42;;;;;;;5.10;3.38;;;;;;;16.53;60.85;97361.69;10379343;28;20057;-25
2023/01/02 17:02:45;;;;;;;3.87;2.97;;;;;;;16.64;59.46;97370.34;10370752;28;20038;-24
2023/01/02 17:07:45;;;;;;;5.78;3.28;;;;;;;16.74;59.93;97387.38;10360214;28;20056;-25
2023/01/02 17:12:46;;;;;;;5.55;3.25;;;;;;;16.74;59.40;97379.78;10368191;28;20033;-27
2023/01/02 17:17:46;;;;;;;4.45;3.15;;;;;;;16.76;58.98;97390.78;10371438;28;20030;-29
2023/01/02 17:22:47;;;;;;;6.03;3.77;;;;;;;16.76;58.85;97403.41;10362733;28;20034;-27
2023/01/02 17:27:47;;;;;;;5.80;4.40;;;;;;;16.77;58.76;97400.06;10364535;28;20036;-25
2023/01/02 17:32:47;;;;;;;5.93;3.67;;;;;;;16.76;64.29;97418.59;10362411;28;20285;-25
2023/01/02 17:37:48;;;;;;;7.72;3.63;;;;;;;16.78;64.36;97424.50;10373088;28;20026;-25
2023/01/02 17:42:48;;;;;;;5.45;3.05;;;;;;;16.79;61.38;97426.22;10355197;28;20561;-25
2023/01/02 17:47:50;;;;;;;5.93;2.77;;;;;;;16.81;60.51;97425.41;10358329;28;20026;-24
2023/01/02 17:52:50;;;;;;;6.28;3.30;;;;;;;16.78;62.38;97424.50;10371083;28;20042;-25
2023/01/02 17:57:51;;;;;;;8.03;3.40;;;;;;;16.82;61.44;97432.19;10355956;28;20505;-24
2023/01/02 18:02:51;;;;;;;11.13;3.23;;;;;;;16.82;60.63;97449.03;10368298;28;20138;-27
2023/01/02 18:07:51;;;;;;;10.07;3.70;;;;;;;16.90;61.99;97442.44;10364113;28;20567;-27
2023/01/02 18:12:52;;;;;;;6.00;3.63;;;;;;;16.89;62.88;97450.88;10359204;28;20418;-28
2023/01/02 18:17:53;;;;;;;8.00;3.83;;;;;;;16.89;64.17;97450.88;10364047;28;20121;-25
2023/01/02 18:22:54;;;;;;;5.97;3.45;;;;;;;16.79;63.48;97456.56;10376753;28;20319;-25
2023/01/02 18:28:10;;;;;;;10.30;4.53;;;;;;;16.87;63.96;97460.06;10374548;28;20038;-27
2023/01/02 18:33:17;;;;;;;10.68;4.75;;;;;;;16.85;65.47;97465.13;10375057;28;20305;-25
2023/01/02 18:38:33;;;;;;;8.23;4.22;;;;;;;16.80;65.21;97443.09;10371200;28;20493;-26
2023/01/02 18:43:36;;;;;;;8.02;4.45;;;;;;;16.84;65.43;97460.03;10369821;28;20412;-25
2023/01/02 18:48:38;;;;;;;10.65;4.70;;;;;;;16.84;64.79;97482.78;10366388;28;20042;-26
2023/01/02 18:53:47;;;;;;;11.77;4.20;;;;;;;16.86;65.09;97478.59;10364674;28;20104;-26
2023/01/02 18:59:19;;;;;;;8.43;4.18;;;;;;;16.82;65.01;97466.75;10366504;28;20386;-25
2023/01/02 19:04:29;;;;;;;5.60;3.83;;;;;;;16.85;64.95;97477.78;10365378;28;20072;-26
2023/01/02 19:09:33;;;;;;;9.13;3.95;;;;;;;16.84;64.88;97490.38;10360026;28;20034;-26
2023/01/02 19:14:39;;;;;;;7.90;3.65;;;;;;;16.83;64.54;97498.78;10367407;28;20513;-26
2023/01/02 19:19:39;;;;;;;6.93;3.53;;;;;;;16.85;63.08;97509.78;10361924;28;20504;-25
2023/01/02 19:24:40;;;;;;;5.93;3.90;;;;;;;16.83;64.09;97509.75;10372568;28;20045;-26
2023/01/02 19:29:43;;;;;;;6.63;3.70;;;;;;;16.84;63.93;97526.63;10373117;28;20065;-28
2023/01/02 19:34:51;;;;;;;8.45;3.60;;;;;;;16.85;64.22;97522.44;10369602;28;20042;-26
2023/01/02 19:39:52;;;;;;;7.60;3.90;;;;;;;16.85;64.61;97530.88;10360306;28;20029;-26
2023/01/02 19:45:08;;;;;;;8.80;3.72;;;;;;;16.84;65.70;97540.97;10360126;28;20038;-26
2023/01/02 19:50:14;;;;;;;8.73;4.53;;;;;;;16.84;65.11;97541.78;10354450;28;20121;-25
2023/01/02 19:55:16;;;;;;;9.15;5.10;;;;;;;16.84;65.53;97546.84;10360848;28;20065;-25
2023/01/02 20:00:20;;;;;;;6.80;3.67;;;;;;;16.85;65.85;97550.25;10365704;28;20556;-27
2023/01/02 20:05:21;;;;;;;7.03;3.45;;;;;;;16.86;66.18;97559.53;10365139;28;20564;-26
2023/01/02 20:10:21;;;;;;;6.90;3.67;;;;;;;16.87;65.75;97566.31;10359984;28;20026;-25
2023/01/02 20:15:25;;;;;;;6.40;3.50;;;;;;;16.86;65.97;97562.06;10357898;28;20058;-26
2023/01/02 20:20:28;;;;;;;6.47;3.28;;;;;;;16.84;66.07;97572.13;10366703;28;20061;-25
2023/01/02 20:25:28;;;;;;;5.47;3.60;;;;;;;16.85;66.01;97583.13;10355095;28;20080;-25
2023/01/02 20:30:29;;;;;;;5.37;3.33;;;;;;;16.84;66.34;97582.25;10366694;28;20115;-25
2023/01/02 20:35:29;;;;;;;7.17;3.47;;;;;;;16.84;65.82;97576.38;10364917;28;20419;-25
2023/01/02 20:40:29;;;;;;;5.03;3.10;;;;;;;16.84;65.65;97581.44;10365361;28;20041;-26
2023/01/02 20:45:30;;;;;;;4.77;2.97;;;;;;;16.80;65.78;97574.59;10364591;28;20045;-26
2023/01/02 20:50:30;;;;;;;5.47;3.33;;;;;;;16.79;65.40;97575.41;10356058;28;20076;-27
2023/01/02 20:55:31;;;;;;;4.83;3.27;;;;;;;16.80;62.76;97588.09;10360930;28;20053;-26
2023/01/02 21:00:32;;;;;;;3.88;3.05;;;;;;;16.84;65.52;97599.97;10353341;28;20387;-26
2023/01/02 21:05:35;;;;;;;4.25;3.28;;;;;;;16.85;66.31;97604.22;10358004;28;20030;-26
2023/01/02 21:10:36;;;;;;;5.68;3.83;;;;;;;16.86;65.58;97610.13;10368004;28;20046;-25
2023/01/02 21:15:44;;;;;;;4.77;3.40;;;;;;;16.87;64.53;97617.75;10350143;28;20029;-26
2023/01/02 21:20:48;;;;;;;5.82;3.05;;;;;;;16.87;65.87;97620.28;10359579;28;20324;-25
2023/01/02 21:25:52;;;;;;;6.20;3.80;;;;;;;16.88;65.46;97623.66;10353683;28;20451;-26
2023/01/02 21:30:53;;;;;;;6.72;2.95;;;;;;;16.88;65.29;97621.97;10361413;28;20045;-25
2023/01/02 21:35:56;;;;;;;6.13;3.40;;;;;;;16.89;65.15;97632.97;10361851;28;20057;-25
2023/01/02 21:46:18;;;;;;;12.02;2.80;;;;;;;16.92;64.20;97655.78;10363868;28;20110;-25
2023/01/02 21:51:18;;;;;;;7.60;3.50;;;;;;;16.88;64.56;97664.09;10349176;28;20042;-25
2023/01/02 21:56:18;;;;;;;14.03;3.20;;;;;;;16.92;65.17;97655.78;10355976;28;20110;-25
2023/01/02 22:01:19;;;;;;;5.87;2.60;;;;;;;16.91;65.85;97656.59;10381635;28;20045;-26
2023/01/02 22:06:20;;;;;;;7.70;2.70;;;;;;;16.92;65.98;97660.84;10363140;28;20104;-24
2023/01/02 22:16:39;;;;;;;5.78;2.95;;;;;;;16.91;66.14;97664.19;10351808;28;20030;-26
2023/01/02 22:21:41;;;;;;;9.20;3.80;;;;;;;16.89;66.87;97643.09;10365283;28;20560;-27
2023/01/02 22:26:42;;;;;;;6.75;2.90;;;;;;;16.90;66.65;97653.22;10363155;28;20037;-25
2023/01/02 22:31:43;;;;;;;7.68;2.97;;;;;;;16.89;67.50;97655.72;10367228;28;20026;-25
2023/01/02 22:36:44;;;;;;;6.53;3.25;;;;;;;16.89;67.77;97666.69;10360439;28;20022;-26
2023/01/02 22:41:47;;;;;;;6.93;2.90;;;;;;;16.91;66.89;97686.97;10359030;28;20026;-25
2023/01/02 22:46:53;;;;;;;4.60;2.83;;;;;;;16.91;67.08;97694.56;10366802;28;20065;-27
2023/01/02 22:51:55;;;;;;;3.13;2.47;;;;;;;16.90;66.14;97705.50;10365721;28;20149;-25
2023/01/02 22:56:55;;;;;;;4.20;2.45;;;;;;;16.89;66.69;97726.56;10358559;28;20121;-24
2023/01/02 23:01:56;;;;;;;5.20;2.40;;;;;;;16.90;66.52;97728.25;10366980;28;20030;-25
2023/01/02 23:06:56;;;;;;;3.83;2.57;;;;;;;16.86;66.04;97722.28;10355347;28;20030;-25
2023/01/02 23:11:56;;;;;;;2.97;2.23;;;;;;;16.90;66.70;97720.66;10368209;28;20037;-24
2023/01/02 23:22:16;;;;;;;4.13;2.30;;;;;;;16.86;66.59;97727.34;10372644;28;20030;-26
2023/01/02 23:27:16;;;;;;;6.17;2.40;;;;;;;16.86;66.83;97732.38;10371574;28;20504;-25
2023/01/02 23:32:17;;;;;;;4.35;2.60;;;;;;;16.85;66.36;97735.75;10373608;28;20517;-25
2023/01/02 23:37:17;;;;;;;7.03;3.33;;;;;;;16.84;66.96;97743.28;10371700;28;20033;-25
2023/01/02 23:42:17;;;;;;;5.00;2.77;;;;;;;16.84;66.90;97735.69;10371383;28;20040;-26
2023/01/02 23:47:18;;;;;;;3.50;2.70;;;;;;;16.85;67.01;97734.88;10372543;28;20295;-24
2023/01/02 23:52:18;;;;;;;3.40;2.17;;;;;;;16.87;67.57;97726.50;10371217;28;20091;-26
2023/01/02 23:57:19;;;;;;;4.63;2.27;;;;;;;16.87;66.88;97723.09;10370313;28;20033;-25
